Date,TemperatureHighF,TemperatureAvgF,TemperatureLowF,DewpointHighF,DewpointAvgF,DewpointLowF,HumidityHigh,HumidityAvg,HumidityLow,PressureMaxIn,PressureMinIn,WindSpeedMaxMPH,WindSpeedAvgMPH,GustSpeedMaxMPH,PrecipitationSumIn
2013-1-1,80.3,71.3,57.9,50.0,45.4,39.0,56,40,29,29.68,29.48,24,10,30,0.00
2013-1-2,76.5,68.6,57.1,59.0,53.1,49.0,89,59,44,29.54,29.22,20,7,33,0.11
2013-1-3,66.5,55.3,44.4,54.0,44.6,38.0,92,70,41,29.74,29.24,18,4,27,0.08
2013-1-4,70.0,57.6,43.4,50.0,41.3,36.0,79,57,35,29.92,29.73,14,4,20,0.00
2013-1-5,79.6,65.4,51.8,55.0,49.8,44.0,82,60,36,29.95,29.85,15,7,22,0.00
2013-1-6,69.0,63.0,58.6,60.0,55.0,50.0,89,76,60,29.98,29.79,14,3,22,0.00
2013-1-7,75.4,58.3,50.6,56.0,50.6,47.0,93,77,48,29.81,29.31,14,4,27,0.00
2013-1-8,68.7,59.0,50.3,51.0,47.7,44.0,91,68,44,29.57,29.31,15,4,20,0.01
2013-1-9,85.7,71.6,55.0,54.0,47.7,43.0,83,46,26,29.56,29.30,29,10,36,0.00
2013-1-10,79.1,74.2,64.7,61.0,47.5,38.0,64,40,25,29.67,29.18,30,12,44,0.00
2013-1-11,79.0,68.8,61.7,53.0,44.8,37.0,69,44,25,29.91,29.68,20,6,23,0.00
2013-1-12,89.7,72.9,56.0,57.0,44.1,28.0,90,44,12,29.91,29.65,15,4,23,0.00
2013-1-13,87.7,75.0,60.0,59.0,53.3,48.0,75,48,34,29.70,29.32,21,5,27,0.00
2013-1-14,65.4,60.4,56.0,53.0,50.1,43.0,84,70,45,29.60,29.50,12,3,13,0.00
2013-1-15,58.5,56.7,54.6,55.0,53.9,52.0,95,90,83,29.70,29.59,11,2,15,0.24
2013-2-5,58.5,55.4,53.7,46.0,44.5,42.0,75,67,57,30.21,30.12,7,3,22,0.28
2013-2-6,62.5,56.3,51.9,52.0,47.9,45.0,86,74,58,30.31,30.18,9,2,17,0.00
2013-2-7,67.1,58.6,47.7,53.0,50.3,45.0,89,75,59,30.32,30.26,13,4,18,0.00
2013-2-8,68.3,61.5,56.0,58.0,55.2,52.0,88,80,67,30.31,30.12,19,8,22,0.00
2013-2-9,77.0,62.6,52.2,63.0,57.6,51.0,95,85,57,30.12,30.03,9,2,12,0.00
2013-2-10,79.1,64.7,55.2,61.0,57.2,53.0,97,79,43,30.06,29.86,17,6,21,0.00
2013-2-11,79.6,64.9,57.8,64.0,56.4,50.0,96,76,51,29.96,29.73,14,3,24,0.00
2013-2-12,67.7,60.9,56.6,58.0,55.1,52.0,91,81,66,29.96,29.73,13,4,17,0.00
2013-2-13,62.1,57.4,51.9,57.0,50.0,45.0,94,77,62,29.95,29.71,12,2,21,0.00
2013-2-14,77.6,62.5,44.5,52.0,44.8,38.0,90,57,26,29.94,29.81,13,3,17,0.00
2013-2-15,69.5,61.7,52.4,56.0,53.3,46.0,91,75,55,30.00,29.88,13,5,20,0.00
2013-2-16,79.7,66.2,54.0,58.0,53.5,50.0,91,67,38,30.00,29.86,9,2,15,0.00
2013-2-17,64.1,58.2,49.7,55.0,52.1,46.0,92,81,66,30.27,30.00,8,2,12,0.00
2013-2-18,73.6,59.8,45.1,56.0,51.3,43.0,94,76,48,30.30,30.23,11,3,14,0.00
2013-2-19,76.1,64.0,54.3,59.0,54.2,49.0,96,74,40,30.30,30.13,19,6,26,0.01
2013-2-20,68.8,62.3,55.5,58.0,55.8,52.0,92,80,64,30.15,30.08,13,3,17,0.00
2013-2-21,72.9,58.1,49.4,58.0,52.0,48.0,93,81,51,30.29,30.00,21,3,22,0.00
2013-2-22,62.8,55.5,48.1,51.0,48.6,44.0,93,78,62,30.32,30.24,9,2,13,0.01
2013-2-23,65.3,54.2,42.0,52.0,47.1,40.0,93,78,58,30.41,30.26,9,2,12,0.00
2013-2-24,68.8,57.0,44.6,54.0,50.0,43.0,93,78,56,30.50,30.35,7,1,12,0.00
2013-2-25,68.3,60.5,56.3,56.0,54.1,52.0,88,80,63,30.50,30.36,18,6,21,0.00
2013-2-26,75.7,64.4,58.5,60.0,56.7,55.0,89,77,53,30.38,30.24,13,6,20,0.00
2013-2-27,75.0,64.4,58.4,58.0,57.4,53.0,91,79,49,30.28,30.09,16,4,20,0.00
2013-2-28,74.1,65.2,60.8,61.0,58.6,56.0,90,80,60,30.09,29.79,17,10,26,0.00
2013-3-1,71.4,62.8,57.9,60.0,56.8,54.0,94,82,58,29.98,29.80,12,3,19,0.00
2013-3-2,70.3,62.6,58.3,56.0,54.4,53.0,86,76,60,29.97,29.73,13,2,13,0.00
2013-3-3,62.0,58.4,54.2,57.0,51.0,47.0,93,77,61,29.89,29.69,12,4,17,0.02
2013-3-4,68.0,57.6,51.3,54.0,49.8,46.0,92,76,57,29.97,29.55,19,4,22,0.00
2013-3-5,72.0,59.3,49.0,51.0,48.3,46.0,90,69,39,30.01,29.87,14,3,17,0.00
2013-3-6,83.1,62.4,53.6,56.0,47.9,40.0,82,63,22,30.14,29.77,18,3,33,0.00
2013-3-7,65.9,57.1,50.8,56.0,51.8,48.0,95,83,62,30.15,30.02,18,6,23,0.00
2013-3-8,84.6,66.3,53.0,58.0,53.8,47.0,96,70,28,30.25,30.03,10,3,16,0.01
2013-3-9,65.8,60.2,56.4,56.0,54.5,53.0,92,82,65,30.28,30.13,17,7,21,0.00
2013-3-10,66.1,60.4,55.6,58.0,56.0,53.0,93,85,70,30.24,30.11,13,3,17,0.00
2013-3-11,66.7,59.0,55.6,59.0,53.5,49.0,96,83,57,30.30,30.07,13,3,14,0.00
2013-3-12,63.6,58.1,54.8,53.0,51.0,49.0,87,77,66,30.30,30.08,13,4,15,0.00
2013-3-13,70.6,60.7,54.5,55.0,52.5,51.0,90,75,56,30.08,29.95,9,2,13,0.00
2013-3-14,76.4,62.9,52.7,59.0,55.8,51.0,94,80,48,29.99,29.79,14,5,18,0.00
2013-3-15,74.3,63.6,54.0,60.0,56.9,53.0,96,80,58,30.07,29.84,7,1,10,0.01
2013-3-16,65.0,60.6,58.3,57.0,55.2,54.0,90,82,73,30.08,29.81,6,1,8,0.00
2013-3-17,69.6,61.2,57.7,61.0,57.4,56.0,95,88,65,29.81,29.40,13,3,15,0.24
2013-3-18,58.3,56.3,53.3,58.0,54.9,50.0,97,95,88,29.71,29.39,10,2,16,0.69
2013-3-19,54.6,51.6,47.7,50.0,48.1,45.0,94,88,77,30.17,29.72,9,2,15,0.07
2013-3-20,63.6,53.9,46.1,51.0,46.4,44.0,93,78,51,30.36,30.17,8,1,11,0.00
2013-3-21,64.7,55.4,46.0,52.0,47.4,43.0,91,76,53,30.44,30.36,15,5,19,0.00
2013-3-22,66.6,58.1,49.6,56.0,52.1,46.0,90,81,66,30.44,30.30,12,5,18,0.00
2013-3-23,74.6,61.5,50.1,56.0,50.9,44.0,94,71,36,30.31,30.14,10,2,16,0.00
2013-3-24,74.1,63.2,54.7,54.0,48.4,44.0,86,62,36,30.16,30.07,11,2,18,0.00
2013-3-25,77.6,69.7,60.9,51.0,48.6,47.0,62,48,37,30.07,29.90,19,7,26,0.00
2013-3-26,68.0,60.9,56.0,57.0,53.3,48.0,88,77,55,30.28,30.04,15,4,19,0.00
2013-3-27,65.9,59.2,55.4,57.0,55.5,53.0,94,87,72,30.34,30.24,11,2,16,0.00
2013-3-28,70.9,59.4,52.1,59.0,55.5,51.0,96,87,64,30.31,30.13,10,3,13,0.00
2013-3-29,79.7,64.1,54.3,59.0,53.0,44.0,96,71,29,30.10,29.78,11,3,20,0.00
2013-3-30,78.8,67.6,54.0,57.0,49.4,46.0,89,54,33,29.86,29.78,12,4,17,0.00
2013-3-31,75.6,65.5,56.1,59.0,54.1,47.0,94,70,40,29.78,29.50,14,3,20,0.04
2013-4-1,73.6,63.5,56.3,54.0,49.3,46.0,74,61,45,30.02,29.54,17,6,23,0.00
2013-4-2,74.5,61.9,50.6,54.0,49.9,39.0,90,68,28,30.01,29.69,11,4,16,0.00
2013-4-3,73.1,62.8,47.7,57.0,51.6,46.0,93,69,51,29.84,29.48,15,4,22,0.09
2013-4-4,60.9,51.8,44.9,48.0,44.9,38.0,95,79,43,30.12,29.84,9,2,11,0.02
2013-4-5,58.1,49.9,44.6,49.0,44.6,39.0,93,82,70,30.30,30.09,10,2,15,0.02
2013-4-6,54.8,49.4,44.2,47.0,43.8,40.0,93,82,66,30.37,30.29,8,1,11,0.00
2013-4-7,57.4,48.3,39.9,46.0,41.6,38.0,93,79,52,30.38,30.22,6,1,9,0.02
2013-4-8,63.1,53.5,43.2,49.0,45.2,42.0,95,76,54,30.21,30.05,10,1,10,0.01
2013-4-9,53.5,50.4,46.2,49.0,45.2,42.0,93,82,65,30.34,30.10,14,2,20,0.10
2013-4-10,57.4,48.8,36.9,48.0,42.5,35.0,94,80,58,30.34,30.12,13,4,17,0.00
2013-4-11,71.8,60.0,42.9,52.0,45.5,41.0,94,63,38,30.10,29.85,16,5,22,0.00
2013-4-12,65.9,58.1,49.1,52.0,47.9,43.0,87,70,48,30.30,29.88,15,4,22,0.00
2013-4-13,61.2,53.2,45.1,54.0,48.9,40.0,95,85,76,30.29,30.17,10,2,16,0.00
2013-4-14,65.5,54.5,43.4,55.0,50.5,42.0,97,87,63,30.17,29.94,13,2,16,0.00
2013-4-15,74.8,60.7,48.6,55.0,50.0,46.0,95,70,44,29.95,29.84,9,2,12,0.01
2013-4-16,61.3,54.7,46.4,55.0,50.5,43.0,95,86,73,29.89,29.80,10,2,14,0.11
2013-4-17,55.2,53.3,52.2,54.0,52.1,51.0,96,95,94,29.84,29.62,5,1,10,0.24
2013-4-18,54.8,53.2,50.0,52.0,50.1,47.0,96,89,83,29.93,29.70,8,2,12,0.00
2013-4-19,55.3,51.4,47.2,49.0,47.9,45.0,94,88,75,30.07,29.92,8,2,11,0.01
2013-4-20,52.8,50.1,49.0,51.0,48.3,46.0,97,93,87,30.08,30.03,9,2,13,0.30
2013-4-21,56.4,52.4,51.0,56.0,51.1,49.0,97,95,88,30.01,29.70,13,3,19,0.34
2013-4-22,58.3,51.9,44.3,55.0,50.2,43.0,97,94,85,29.69,29.55,4,0,6,0.01
2013-4-23,62.4,54.6,48.5,57.0,52.4,47.0,97,92,78,29.61,29.53,7,1,10,0.00
2013-4-24,66.2,54.9,47.2,56.0,51.0,46.0,98,87,60,29.55,29.49,7,1,15,0.02
2013-4-25,66.6,55.9,48.4,58.0,51.6,47.0,96,86,59,29.61,29.50,5,0,10,0.01
2013-4-26,61.9,54.5,45.6,53.0,48.0,41.0,95,80,48,29.70,29.45,19,3,26,0.02
2013-4-27,65.5,57.0,47.9,51.0,46.6,39.0,91,70,44,29.73,29.43,17,3,24,0.00
2013-4-28,73.7,64.6,49.9,53.0,47.4,45.0,91,56,37,29.84,29.70,21,4,29,0.00
2013-4-29,71.6,61.7,51.9,59.0,52.5,45.0,95,74,44,29.92,29.68,13,1,24,0.00
2013-4-30,53.7,49.5,43.9,53.0,47.4,42.0,97,92,80,30.25,29.92,9,1,19,0.15
2013-5-1,56.6,46.3,33.8,48.0,41.7,33.0,96,85,59,30.23,30.04,13,4,15,0.00
2013-5-2,54.6,48.1,42.0,49.0,44.6,40.0,94,88,76,30.01,29.77,5,0,7,0.07
2013-5-3,55.2,49.2,45.6,49.0,46.0,44.0,95,89,78,30.14,29.98,10,2,13,0.02
2013-5-4,64.7,56.1,48.2,57.0,51.7,46.0,94,85,75,29.95,29.41,13,4,17,0.00
2013-5-5,61.9,54.8,51.8,55.0,51.0,47.0,96,87,68,29.39,29.23,13,3,16,0.06
2013-5-6,51.7,47.2,44.2,51.0,45.8,42.0,96,94,89,29.97,29.37,18,8,31,0.95
2013-5-7,55.9,46.0,39.2,43.0,40.8,37.0,94,83,58,30.25,29.98,6,1,11,0.02
2013-5-8,56.9,44.3,34.1,47.0,39.7,32.0,94,85,64,30.31,30.25,10,1,10,0.00
2013-5-9,58.0,46.2,34.4,52.0,40.5,33.0,97,83,44,30.23,29.57,15,2,21,0.01
2013-5-10,55.9,46.5,41.2,47.0,40.7,35.0,92,80,57,30.25,29.67,18,5,26,0.17
2013-5-11,54.4,47.3,40.1,44.0,39.1,33.0,87,73,64,30.41,30.27,5,1,10,0.00
2013-5-12,71.4,56.5,44.5,60.0,48.5,41.0,89,76,54,30.41,30.30,5,1,9,0.00
2013-5-13,52.3,50.7,48.3,51.0,49.0,47.0,96,93,90,30.38,30.18,9,2,14,0.00
2013-5-14,59.8,51.7,44.4,54.0,49.2,43.0,96,91,81,30.17,29.92,7,2,10,0.00
2013-5-15,60.4,50.3,41.9,54.0,45.8,39.0,96,85,68,30.09,29.97,7,2,11,0.00
2013-5-16,57.0,51.5,48.2,53.0,49.7,47.0,97,93,86,30.06,29.88,13,4,15,0.00
2013-5-17,62.2,55.9,46.6,53.0,49.5,44.0,95,80,58,29.86,29.71,12,3,18,0.16
2013-5-18,54.1,52.3,51.3,52.0,50.9,50.0,96,95,91,29.70,29.50,11,4,18,0.09
2013-5-19,52.7,51.7,50.8,52.0,50.8,50.0,97,97,96,29.67,29.49,6,1,10,0.39
2013-5-20,55.4,50.5,45.4,52.0,49.1,45.0,98,95,86,29.77,29.65,7,1,11,0.01
2013-5-21,54.0,52.0,49.7,53.0,51.1,49.0,97,96,94,29.81,29.67,11,3,14,0.59
2013-5-22,57.6,51.5,46.5,53.0,49.9,45.0,98,94,81,29.65,29.41,4,0,11,0.03
2013-5-23,51.6,48.6,43.6,50.0,44.5,40.0,95,86,67,29.88,29.43,15,4,23,0.03
2013-5-24,51.7,44.8,39.9,44.0,39.7,37.0,92,83,64,30.06,29.90,4,0,7,0.00
2013-5-25,63.3,51.7,40.8,49.0,40.4,36.0,92,69,43,29.94,29.53,15,4,22,0.00
2013-5-26,66.1,57.6,47.9,47.0,37.2,30.0,56,47,29,29.52,29.16,22,6,30,0.00
2013-5-27,49.8,45.2,38.1,40.0,37.0,31.0,91,74,48,29.50,29.25,15,3,25,0.02
2013-5-28,44.0,39.8,35.3,35.0,29.1,26.0,88,66,51,30.01,29.52,22,7,26,0.02
2013-5-29,54.5,44.3,37.4,39.0,31.4,25.0,76,61,49,30.29,30.03,12,2,21,0.00
2013-5-30,57.0,45.5,36.5,41.0,35.9,29.0,88,70,51,30.36,30.29,5,1,7,0.00
2013-5-31,63.7,50.4,39.2,48.0,41.4,34.0,90,72,51,30.29,30.16,11,2,13,0.00
2013-6-1,62.4,53.9,43.5,50.0,44.8,39.0,85,72,60,30.15,29.77,10,3,17,0.00
2013-6-2,66.8,63.7,54.2,47.0,43.6,40.0,75,49,39,29.75,29.45,18,8,28,0.00
2013-6-3,64.1,48.5,43.6,48.0,44.7,42.0,95,88,44,29.65,29.48,14,2,19,0.26
2013-6-4,46.9,44.3,40.1,46.0,42.8,38.0,97,94,90,29.91,29.41,24,3,24,0.33
2013-6-5,49.1,41.5,33.7,43.0,35.8,31.0,91,81,61,30.20,29.91,4,0,8,0.00
2013-6-6,52.2,45.3,40.5,47.0,41.6,38.0,94,87,76,30.34,30.22,8,2,12,0.00
2013-6-7,52.2,44.0,38.1,45.0,40.5,36.0,95,87,73,30.33,30.16,11,2,13,0.00
2013-6-8,61.5,50.1,43.0,49.0,43.9,41.0,95,81,53,30.15,29.87,9,2,12,0.02
2013-6-9,54.0,49.4,43.4,50.0,46.9,41.0,95,91,83,30.21,29.93,10,2,16,0.00
2013-6-10,52.5,48.4,44.3,51.0,47.1,43.0,97,95,89,30.24,30.14,9,2,14,0.00
2013-6-11,49.9,46.6,41.6,49.0,45.7,41.0,97,96,95,30.14,30.07,3,1,5,0.01
2013-6-12,54.6,43.3,33.2,47.0,40.6,33.0,98,90,71,30.06,29.98,6,0,11,0.01
2013-6-13,50.4,45.5,39.8,46.0,43.3,39.0,96,92,84,30.07,29.90,4,0,10,0.01
2013-6-14,50.5,47.1,45.4,48.0,44.9,44.0,96,92,86,30.17,30.09,12,3,17,0.00
2013-6-15,46.9,44.1,38.9,45.0,42.4,37.0,96,93,88,30.12,29.98,7,0,10,0.10
2013-6-16,46.1,45.0,44.0,45.0,44.2,43.0,97,97,96,29.99,29.66,6,1,8,1.05
2013-6-17,52.0,49.2,45.5,51.0,48.5,45.0,98,97,96,29.64,29.43,11,3,15,1.10
2013-6-18,51.6,46.5,39.1,47.0,44.6,38.0,97,93,81,29.52,29.36,10,3,15,0.01
2013-6-19,47.1,45.1,41.4,46.0,44.0,41.0,97,96,94,29.36,29.12,6,1,13,0.46
2013-6-20,43.5,39.7,35.3,42.0,37.5,34.0,97,92,76,29.52,29.10,25,7,31,0.97
2013-6-21,41.7,37.1,34.0,37.0,34.9,31.0,95,92,74,29.87,29.54,30,9,30,0.51
2013-6-22,38.1,37.0,35.4,37.0,35.7,34.0,96,95,94,30.08,29.87,16,7,22,0.82
2013-6-23,49.1,38.8,31.0,40.0,34.1,29.0,94,83,66,30.08,29.96,3,0,7,0.00
2013-6-24,55.1,42.1,34.2,43.0,35.3,31.0,92,78,57,30.12,29.99,3,0,5,0.00
2013-6-25,52.7,40.2,32.9,38.0,33.2,30.0,91,77,56,30.14,30.11,4,0,8,0.00
2013-6-26,50.2,42.3,35.5,45.0,36.2,31.0,89,79,67,30.24,30.12,6,1,11,0.00
2013-6-27,49.4,41.3,33.3,42.0,36.6,30.0,94,84,71,30.25,30.18,7,2,13,0.05
2013-6-28,49.0,41.8,34.4,41.0,37.7,32.0,94,86,70,30.25,30.21,5,1,12,0.05
2013-6-29,46.7,36.9,27.9,41.0,33.9,26.0,96,89,77,30.22,30.10,6,0,8,0.00
2013-6-30,56.0,43.0,35.8,47.0,38.2,32.0,96,83,70,30.09,30.01,5,1,7,0.01
2013-7-1,60.6,49.0,37.6,46.0,37.8,32.0,83,67,46,30.04,29.92,17,2,19,0.00
2013-7-2,66.7,60.3,52.8,44.0,40.9,38.0,63,49,40,29.95,29.83,13,4,23,0.00
2013-7-3,66.7,55.5,43.8,48.0,41.4,37.0,92,62,41,29.95,29.67,18,3,18,0.00
2013-7-4,51.0,46.5,40.8,47.0,43.7,39.0,95,90,83,30.10,29.89,10,3,14,0.00
2013-7-5,65.0,57.0,44.9,43.0,38.9,33.0,93,52,41,29.86,29.56,22,6,29,0.00
2013-7-6,60.1,55.3,49.7,48.0,40.5,35.0,89,59,45,29.61,29.34,30,9,47,0.09
2013-7-7,55.7,50.2,42.1,44.0,38.0,32.0,80,64,48,29.73,29.47,18,6,28,0.01
2013-7-8,50.8,39.9,32.6,41.0,33.6,28.0,92,78,62,30.01,29.75,5,1,11,0.00
2013-7-9,46.0,39.5,31.5,42.0,35.7,30.0,94,86,72,30.14,29.88,11,1,14,0.04
2013-7-10,44.7,39.7,35.2,41.0,37.1,33.0,93,90,83,30.59,30.17,8,2,14,0.20
2013-7-11,48.3,38.4,30.6,38.0,33.0,28.0,93,82,63,30.59,30.51,6,1,10,0.00
2013-7-12,46.8,36.2,27.7,38.0,31.2,25.0,93,82,65,30.53,30.28,4,0,7,0.00
2013-7-13,49.6,42.8,37.8,47.0,41.1,36.0,96,94,88,30.26,29.80,8,2,14,0.15
2013-7-14,45.2,40.2,36.2,44.0,37.9,34.0,96,91,83,30.07,29.74,18,6,35,0.30
2013-7-15,44.1,42.1,37.4,43.0,39.3,34.0,95,90,74,30.29,30.03,13,3,24,0.32
2013-7-16,48.2,40.5,33.2,43.0,37.6,31.0,94,89,78,30.33,30.25,9,2,11,0.00
2013-7-17,61.0,48.0,38.0,48.0,41.5,36.0,94,79,60,30.30,30.19,6,1,8,0.00
2013-7-18,59.7,54.2,42.3,50.0,45.5,40.0,91,73,58,30.27,30.14,6,1,14,0.01
2013-7-19,50.9,47.1,40.1,49.0,45.1,39.0,96,92,85,30.32,30.23,5,0,6,0.01
2013-7-20,49.5,47.3,43.2,47.0,45.9,42.0,96,94,91,30.31,30.12,15,4,16,0.00
2013-7-21,66.5,49.0,36.8,53.0,43.1,36.0,97,82,45,30.13,30.06,4,1,7,0.00
2013-7-22,63.9,52.2,43.8,51.0,44.5,41.0,91,76,51,30.12,29.93,15,3,22,0.00
2013-7-23,57.2,51.3,46.1,50.0,47.0,45.0,96,85,65,29.96,29.77,6,0,9,0.11
2013-7-24,59.9,46.9,35.8,49.0,40.9,35.0,97,81,56,29.75,29.53,8,1,11,0.02
2013-7-25,62.2,52.0,43.5,44.0,37.2,33.0,74,58,40,29.71,29.52,8,1,14,0.00
2013-7-26,61.9,48.6,36.1,43.0,36.1,30.0,81,64,43,30.08,29.73,7,0,11,0.00
2013-7-27,61.8,49.7,40.7,48.0,40.8,36.0,88,72,49,30.25,30.09,6,0,13,0.00
2013-7-28,62.4,49.0,37.3,47.0,40.4,35.0,91,74,50,30.36,30.25,0,0,7,0.00
2013-7-29,57.9,47.3,37.3,43.0,39.1,34.0,88,74,54,30.47,30.36,9,1,13,0.00
2013-7-30,54.0,47.6,41.7,48.0,44.7,40.0,96,89,79,30.39,30.29,11,3,15,0.01
2013-7-31,48.1,42.2,35.4,45.0,40.9,34.0,97,94,89,30.34,30.21,6,1,9,0.00
2013-8-1,52.4,41.6,33.2,46.0,37.3,29.0,95,85,70,30.39,30.32,4,0,8,0.01
2013-8-2,49.7,46.1,42.8,47.0,44.5,42.0,96,94,88,30.38,30.13,3,0,5,0.00
2013-8-3,52.8,48.9,44.9,50.0,47.1,44.0,97,94,87,30.12,29.84,22,8,27,0.05
2013-8-4,53.5,50.5,48.0,49.0,48.1,46.0,94,91,83,29.87,29.79,16,7,22,0.01
2013-8-5,56.3,50.1,45.6,52.0,47.8,43.0,97,92,67,29.88,29.70,10,3,14,0.01
2013-8-6,58.1,52.1,44.9,47.0,43.3,40.0,87,73,59,29.86,29.69,12,2,15,0.00
2013-8-7,63.7,51.2,41.5,50.0,43.5,39.0,93,76,52,29.86,29.62,14,3,19,0.00
2013-8-8,57.7,50.5,43.7,47.0,41.4,36.0,89,72,51,29.95,29.74,8,1,12,0.00
2013-8-9,51.9,44.3,36.5,47.0,41.3,34.0,94,89,80,30.07,29.96,9,1,9,0.00
2013-8-10,48.9,45.0,37.8,48.0,43.8,37.0,96,95,93,29.98,29.58,14,5,20,0.00
2013-8-11,52.7,50.0,47.1,51.0,48.9,46.0,97,96,94,29.55,29.30,15,7,19,0.07
2013-8-12,51.6,48.3,45.6,49.0,46.2,44.0,97,92,85,29.62,29.37,5,1,12,0.25
2013-8-13,51.8,46.3,36.9,47.0,43.9,36.0,97,91,82,29.61,29.10,17,5,20,0.01
2013-8-14,59.7,50.2,37.9,44.0,37.0,30.0,93,65,33,29.58,29.11,8,1,12,0.01
2013-8-15,65.0,56.2,43.8,46.0,41.0,37.0,79,58,43,29.73,29.59,14,3,18,0.00
2013-8-16,61.2,52.9,45.7,49.0,45.0,40.0,90,75,60,29.87,29.70,8,2,11,0.00
2013-8-17,52.8,49.7,47.9,50.0,48.1,46.0,97,94,89,29.98,29.88,10,2,18,0.61
2013-8-18,51.1,50.4,49.3,50.0,49.2,48.0,97,95,94,30.05,29.96,12,4,19,0.22
2013-8-19,53.3,50.5,48.4,50.0,47.8,46.0,96,90,82,30.08,30.01,17,8,24,0.03
2013-8-20,54.7,50.4,47.7,49.0,46.6,46.0,93,87,76,30.02,29.85,19,9,25,0.00
2013-8-21,57.1,50.4,44.8,50.0,46.3,42.0,93,86,72,29.85,29.68,20,7,22,0.00
2013-8-22,64.1,55.0,48.9,51.0,45.3,39.0,92,72,44,29.66,29.59,18,5,18,0.00
2013-8-23,62.9,51.2,40.5,48.0,40.9,37.0,95,70,42,29.79,29.65,9,1,14,0.00
2013-8-24,57.5,46.0,35.5,44.0,40.2,35.0,96,82,50,29.79,29.61,8,2,12,0.02
2013-8-25,56.0,48.2,42.5,46.0,42.8,39.0,92,82,65,29.71,29.59,4,0,7,0.00
2013-8-26,59.0,50.4,43.5,50.0,45.4,41.0,93,83,67,29.86,29.60,8,2,12,0.00
2013-8-27,61.6,50.9,41.8,44.0,41.0,35.0,95,71,44,29.85,29.78,7,2,11,0.00
2013-8-28,58.7,48.2,40.6,44.0,39.6,36.0,93,74,45,29.83,29.51,17,3,29,0.19
2013-8-29,53.8,45.4,37.1,40.0,35.3,32.0,94,70,45,30.17,29.84,7,1,16,0.20
2013-8-30,49.8,45.6,39.3,44.0,40.6,36.0,93,83,69,30.42,30.19,9,2,11,0.06
2013-8-31,52.2,44.0,34.9,43.0,39.0,33.0,94,83,68,30.45,30.37,16,5,19,0.00
2013-9-1,53.0,45.8,37.7,46.0,41.3,36.0,93,84,73,30.55,30.45,13,4,16,0.00
2013-9-2,54.4,44.4,32.2,47.0,40.7,31.0,95,87,72,30.54,30.35,15,5,18,0.01
2013-9-3,59.0,48.0,38.8,47.0,41.9,37.0,96,81,53,30.33,30.03,12,1,16,0.01
2013-9-4,47.8,44.2,39.9,44.0,40.1,33.0,93,85,70,30.21,29.73,17,5,27,0.43
2013-9-5,52.3,44.2,37.3,42.0,37.7,35.0,92,79,55,30.27,30.16,14,2,20,0.16
2013-9-6,59.9,49.6,36.8,51.0,41.0,34.0,88,73,51,30.14,29.86,6,1,11,0.00
2013-9-7,65.9,54.8,42.1,51.0,40.7,36.0,81,60,44,29.88,29.60,18,4,21,0.00
2013-9-8,56.6,51.0,44.1,47.0,41.4,35.0,89,71,51,29.75,29.57,15,4,22,0.00
2013-9-9,55.1,50.5,45.0,45.0,38.0,28.0,82,63,40,29.73,29.54,17,5,23,0.00
2013-9-10,68.4,58.6,51.9,47.0,37.8,30.0,60,46,39,29.72,29.12,36,13,55,0.00
2013-9-11,65.3,58.9,55.1,50.0,46.3,40.0,72,64,56,29.32,29.21,15,6,26,0.19
2013-9-12,60.9,52.6,42.5,44.0,40.0,31.0,88,64,33,29.70,29.27,25,5,34,0.00
2013-9-13,59.6,50.5,43.6,37.0,32.7,25.0,73,53,27,29.66,29.54,11,3,17,0.00
2013-9-14,57.7,48.3,40.5,43.0,39.2,31.0,92,72,42,29.67,29.47,9,2,13,0.00
2013-9-15,48.8,43.7,38.1,38.0,31.7,29.0,84,64,49,29.99,29.71,12,2,26,0.02
2013-9-16,57.3,46.5,36.5,46.0,36.9,32.0,87,71,51,30.01,29.82,8,1,10,0.00
2013-9-17,51.6,44.8,36.7,40.0,36.8,31.0,92,75,48,30.30,30.01,10,2,23,0.00
2013-9-18,57.4,45.4,34.2,43.0,38.7,32.0,94,79,57,30.27,30.12,11,3,14,0.00
2013-9-19,59.6,48.3,37.6,47.0,42.4,36.0,95,81,54,30.13,29.75,11,2,16,0.01
2013-9-20,58.0,50.6,43.6,52.0,46.9,42.0,93,87,79,29.73,29.62,9,2,13,0.00
2013-9-21,60.6,56.4,52.2,55.0,49.5,45.0,94,79,57,29.70,29.61,10,3,14,0.05
2013-9-22,52.6,49.5,44.9,51.0,48.1,43.0,96,94,92,29.71,29.58,6,2,12,0.20
2013-9-23,58.8,51.4,46.4,54.0,49.0,45.0,97,91,75,30.11,29.66,10,2,11,0.03
2013-9-24,54.1,50.1,46.9,49.0,47.2,43.0,96,90,78,30.23,30.13,11,4,14,0.01
2013-9-25,48.3,46.8,45.7,47.0,45.3,43.0,96,94,87,30.11,29.69,9,2,14,0.17
2013-9-26,62.8,52.1,45.1,56.0,48.4,44.0,96,88,66,29.75,29.52,11,2,16,0.00
2013-9-27,57.0,50.2,40.9,50.0,46.5,39.0,95,87,74,29.76,29.28,23,5,28,0.02
2013-9-28,61.4,52.6,44.1,51.0,46.7,41.0,94,81,61,29.50,29.17,11,2,17,0.15
2013-9-29,51.7,48.2,45.7,47.0,44.9,44.0,94,88,77,29.62,29.52,6,2,11,0.02
2013-9-30,59.0,50.5,46.9,51.0,46.2,44.0,94,85,66,29.88,29.63,10,3,14,0.00
2013-10-1,62.7,53.4,44.3,53.0,47.7,43.0,95,82,67,29.92,29.84,12,4,15,0.01
2013-10-2,69.0,57.8,50.3,50.0,47.7,42.0,93,71,38,29.95,29.70,18,4,26,0.00
2013-10-3,63.9,55.8,50.6,56.0,50.5,46.0,91,82,75,29.97,29.72,10,2,14,0.01
2013-10-4,64.6,57.0,50.3,56.0,51.2,48.0,90,81,67,29.94,29.74,8,1,13,0.00
2013-10-5,63.2,53.7,47.7,57.0,50.8,47.0,97,90,75,29.95,29.73,12,3,13,0.00
2013-10-6,76.1,61.5,47.9,60.0,49.2,42.0,98,69,38,29.73,29.45,10,3,14,0.01
2013-10-7,62.5,54.6,44.1,49.0,43.0,34.0,94,68,37,29.65,29.35,17,6,26,0.17
2013-10-8,44.4,41.6,36.9,43.0,40.3,36.0,96,95,93,29.66,29.60,3,0,7,1.23
2013-10-9,46.6,42.4,37.6,44.0,39.5,35.0,97,89,74,29.73,29.61,10,2,17,0.66
2013-10-10,57.0,45.4,31.5,46.0,38.5,30.0,94,78,53,29.71,29.22,15,3,20,0.00
2013-10-11,54.9,48.8,42.1,47.0,44.2,39.0,92,84,70,29.38,29.13,13,3,16,0.00
2013-10-12,58.8,49.0,43.3,48.0,44.0,41.0,95,83,62,29.58,29.16,10,1,31,0.25
2013-10-13,70.5,54.1,37.4,56.0,44.1,36.0,94,72,44,29.67,29.49,18,5,24,0.00
2013-10-14,68.2,61.4,46.4,59.0,48.3,40.0,88,64,42,29.48,28.89,26,8,37,0.12
2013-10-15,60.5,49.3,40.9,45.0,37.8,33.0,92,67,39,29.64,29.30,21,2,27,0.13
2013-10-16,55.9,47.5,34.6,46.0,40.4,32.0,92,77,58,29.76,29.64,17,4,20,0.00
2013-10-17,71.0,63.0,54.4,48.0,44.3,40.0,60,51,41,29.89,29.77,13,6,21,0.00
2013-10-18,74.1,63.9,49.7,54.0,45.4,36.0,84,52,39,30.14,29.64,22,7,32,0.00
2013-10-19,64.6,55.0,46.9,49.0,45.2,41.0,89,71,49,30.18,30.07,12,4,17,0.00
2013-10-20,74.7,61.3,51.4,50.0,43.8,40.0,75,54,29,30.15,29.97,11,3,18,0.00
2013-10-21,70.6,61.9,50.9,48.0,41.5,31.0,80,49,31,29.96,29.65,28,5,31,0.00
2013-10-22,64.9,54.4,48.0,51.0,47.5,44.0,94,79,48,29.94,29.58,13,2,15,0.03
2013-10-23,56.7,50.3,41.8,50.0,46.1,40.0,95,86,70,30.07,29.83,16,5,24,0.01
2013-10-24,78.1,64.8,51.0,56.0,50.0,41.0,92,62,36,29.82,29.29,29,9,41,0.01
2013-10-25,70.3,62.8,50.0,58.0,42.6,28.0,82,50,28,29.61,29.22,27,9,33,0.00
2013-10-26,64.4,56.7,48.5,47.0,42.2,36.0,70,59,41,29.64,29.44,31,12,47,0.00
2013-10-27,60.4,53.3,46.2,44.0,36.0,24.0,73,54,26,29.66,29.47,18,8,30,0.00
2013-10-28,56.4,49.0,43.8,40.0,38.0,35.0,83,67,47,30.00,29.66,15,4,20,0.00
2013-10-29,62.4,51.8,39.0,49.0,42.2,36.0,90,72,44,30.00,29.84,12,4,19,0.00
2013-10-30,63.8,54.6,45.5,52.0,45.3,35.0,92,72,56,29.88,29.66,14,3,17,0.06
2013-10-31,65.9,56.8,49.5,57.0,50.6,46.0,94,81,58,29.66,29.43,11,3,20,0.02
2013-11-1,57.2,48.9,42.8,47.0,44.1,40.0,94,84,63,29.80,29.62,11,3,14,0.42
2013-11-2,61.7,50.7,38.5,48.0,43.2,37.0,94,77,57,29.86,29.74,10,3,14,0.00
2013-11-3,60.2,54.1,47.1,52.0,48.1,44.0,91,81,64,30.01,29.86,22,7,25,0.00
2013-11-4,74.5,61.4,44.9,55.0,46.8,40.0,95,64,34,29.87,29.76,15,4,21,0.00
2013-11-5,76.4,62.6,51.7,53.0,46.9,42.0,86,59,35,30.07,29.80,13,4,18,0.00
2013-11-6,55.1,52.7,50.7,51.0,50.0,48.0,95,90,86,30.17,30.08,11,3,16,0.02
2013-11-7,68.0,56.7,47.3,54.0,50.7,45.0,94,81,56,30.10,29.89,16,5,22,0.00
2013-11-8,68.3,56.5,51.3,59.0,53.8,49.0,97,91,68,29.97,29.80,16,6,17,0.02
2013-11-9,60.1,54.0,50.7,54.0,50.8,49.0,95,89,75,30.02,29.86,19,5,23,0.00
2013-11-10,80.8,64.4,53.4,58.0,52.2,48.0,95,70,33,29.96,29.66,17,6,23,0.00
2013-11-11,57.7,53.6,50.8,50.0,45.6,43.0,86,75,65,30.43,29.96,8,2,15,0.00
2013-11-12,59.7,53.2,47.4,49.0,46.3,43.0,86,78,66,30.55,30.43,8,2,13,0.00
2013-11-13,61.5,51.8,43.1,48.0,44.5,41.0,92,77,61,30.55,30.34,14,5,18,0.00
2013-11-14,61.8,53.2,43.3,49.0,45.8,41.0,91,77,59,30.38,30.16,15,6,20,0.00
2013-11-15,62.9,56.2,51.4,53.0,50.9,48.0,92,82,69,30.15,29.82,17,7,21,0.00
2013-11-16,80.3,64.9,53.1,57.0,51.1,47.0,95,65,32,30.02,29.75,16,5,22,0.00
2013-11-17,63.4,57.5,52.2,54.0,51.4,49.0,90,80,64,30.08,30.02,15,5,18,0.00
2013-11-18,68.6,59.7,54.2,56.0,53.8,52.0,94,82,62,30.23,30.08,15,2,15,0.00
2013-11-19,64.4,58.7,54.0,56.0,54.3,52.0,95,86,73,30.26,30.13,22,9,27,0.00
2013-11-20,69.6,61.0,55.7,59.0,55.0,53.0,93,81,67,30.13,29.86,20,10,27,0.00
2013-11-21,81.7,60.3,52.4,59.0,54.1,51.0,95,82,37,30.06,29.77,9,2,19,0.03
2013-11-22,59.6,55.3,52.1,54.0,52.3,51.0,96,89,77,30.17,30.06,13,4,16,0.13
2013-11-23,68.2,60.3,55.4,58.0,55.1,53.0,93,83,66,30.16,29.98,10,4,13,0.00
2013-11-24,79.4,63.2,54.8,62.0,57.0,54.0,96,82,45,29.97,29.56,10,3,15,0.00
2013-11-25,62.2,55.4,49.1,57.0,50.8,46.0,96,85,56,29.76,29.56,7,2,13,0.41
2013-11-26,55.0,51.4,48.2,50.0,47.3,46.0,96,86,73,30.01,29.76,6,1,11,0.10
2013-11-27,58.2,53.1,49.2,54.0,50.3,48.0,95,90,80,30.08,29.96,9,3,16,0.04
2013-11-28,63.8,57.1,50.1,55.0,52.4,48.0,95,84,71,29.96,29.54,10,3,15,0.02
2013-11-29,73.8,61.3,46.1,58.0,50.1,45.0,96,70,42,29.54,29.18,23,8,30,0.01
2013-11-30,71.2,60.9,46.7,52.0,44.6,31.0,86,59,23,29.65,29.17,24,6,33,0.02
2013-12-1,68.3,54.5,42.7,47.0,41.9,35.0,90,66,30,30.14,29.62,16,4,25,0.00
2013-12-2,74.5,59.2,46.4,56.0,48.5,37.0,90,70,26,30.22,30.11,9,3,13,0.00
2013-12-3,72.8,62.4,53.6,57.0,54.4,51.0,92,76,54,30.22,29.98,11,4,14,0.00
2013-12-4,74.9,61.5,53.8,60.0,55.2,52.0,94,81,57,30.06,29.82,9,2,14,0.00
2013-12-5,74.7,62.2,55.4,63.0,57.7,54.0,95,86,63,29.84,29.66,11,2,13,0.00
2013-12-6,86.9,70.8,56.3,64.0,56.9,50.0,97,67,35,29.66,29.44,17,6,28,0.00
2013-12-7,76.0,69.7,62.8,50.0,44.8,40.0,58,41,29,29.43,29.35,24,8,37,0.00
2013-12-8,74.8,61.1,54.8,57.0,52.3,47.0,95,74,38,29.66,29.41,10,2,14,0.28
2013-12-9,67.1,59.8,53.4,55.0,53.0,50.0,95,79,55,29.89,29.67,7,2,15,0.00
2013-12-10,67.3,60.2,56.5,59.0,55.7,54.0,94,85,70,29.92,29.82,15,3,17,0.02
2013-12-11,74.8,63.2,57.6,59.0,55.2,52.0,93,77,45,29.85,29.73,14,3,17,0.02
2013-12-12,75.2,65.6,56.0,60.0,56.3,49.0,95,74,43,29.80,29.59,16,5,21,0.00
2013-12-13,75.9,62.6,55.1,62.0,55.9,52.0,90,79,52,29.98,29.73,11,2,17,0.01
2013-12-14,71.0,62.5,51.7,60.0,56.0,50.0,94,80,64,29.99,29.88,9,3,16,0.01
2013-12-15,71.0,62.7,55.7,61.0,57.4,51.0,94,83,67,30.00,29.85,10,3,16,0.00
2013-12-16,72.9,63.8,58.2,60.0,57.3,49.0,94,80,54,29.84,29.73,12,3,15,0.03
2013-12-17,59.4,55.7,51.8,56.0,50.8,47.0,94,84,67,29.99,29.79,8,2,17,0.47
2013-12-18,72.2,59.9,49.3,55.0,50.9,47.0,92,74,47,29.97,29.67,18,4,18,0.06
2013-12-19,60.5,54.5,50.6,51.0,48.1,44.0,94,80,58,30.11,29.86,13,3,19,0.31
2013-12-20,69.6,58.4,44.6,57.0,51.0,42.0,92,77,59,30.10,29.71,15,5,19,0.00
2013-12-21,74.0,61.0,49.0,57.0,47.8,35.0,94,68,25,29.80,29.51,18,5,25,0.09
2013-12-22,61.2,53.7,47.1,48.0,45.0,42.0,94,74,52,30.03,29.81,10,2,16,0.11
2013-12-23,71.4,59.5,47.0,53.0,47.9,43.0,87,67,37,30.02,29.83,10,3,13,0.00
2013-12-24,78.2,65.5,57.2,58.0,54.4,47.0,93,70,45,29.86,29.29,16,6,22,0.00
2013-12-25,71.2,61.3,55.0,57.0,52.4,47.0,95,75,47,29.72,29.36,14,2,21,0.98
2013-12-26,62.1,57.1,53.8,59.0,55.3,53.0,96,93,84,29.98,29.72,14,4,19,0.17
2013-12-27,59.2,57.2,54.9,57.0,55.1,50.0,96,92,77,30.04,29.97,10,2,13,0.14
2013-12-28,64.3,59.2,55.8,62.0,57.8,54.0,96,95,91,30.00,29.85,11,2,11,0.27
2013-12-29,64.4,62.3,60.6,62.0,60.9,59.0,97,95,92,29.86,29.60,11,4,13,0.17
2013-12-30,71.1,63.9,56.5,65.0,57.8,44.0,96,82,43,29.60,29.29,12,5,18,0.02
2013-12-31,73.6,62.5,49.2,45.0,41.3,38.0,78,48,29,29.72,29.44,11,2,17,0.00
2014-1-1,73.3,60.8,49.2,50.0,44.2,38.0,74,56,37,29.71,29.54,17,4,21,0.00
2014-1-2,72.9,64.3,57.9,52.0,45.8,40.0,65,51,44,29.63,29.37,15,5,26,0.00